sensor_id;sensor_type;location;lat;lon;timestamp;temperature;humidity
30250;DHT22;17064;47.974;13.826;2023-02-18T00:01:13;11.50;99.90
30250;DHT22;17064;47.974;13.826;2023-02-18T00:06:17;11.50;99.90
30250;DHT22;17064;47.974;13.826;2023-02-18T00:11:19;11.50;99.90
30250;DHT22;17064;47.974;13.826;2023-02-18T00:16:21;11.50;99.90
30250;DHT22;17064;47.974;13.826;2023-02-18T00:21:22;11.50;99.90
30250;DHT22;17064;47.974;13.826;2023-02-18T00:26:23;11.40;99.90
30250;DHT22;17064;47.974;13.826;2023-02-18T00:31:27;11.50;99.90
30250;DHT22;17064;47.974;13.826;2023-02-18T00:36:29;11.50;99.90
30250;DHT22;17064;47.974;13.826;2023-02-18T00:41:30;11.60;99.90
30250;DHT22;17064;47.974;13.826;2023-02-18T00:46:31;11.60;99.90
30250;DHT22;17064;47.974;13.826;2023-02-18T00:51:33;11.70;99.90
30250;DHT22;17064;47.974;13.826;2023-02-18T00:56:34;11.70;99.90
30250;DHT22;17064;47.974;13.826;2023-02-18T01:01:34;11.70;99.90
30250;DHT22;17064;47.974;13.826;2023-02-18T01:06:35;11.70;99.90
30250;DHT22;17064;47.974;13.826;2023-02-18T01:11:36;11.70;99.90
30250;DHT22;17064;47.974;13.826;2023-02-18T01:16:37;11.70;99.90
30250;DHT22;17064;47.974;13.826;2023-02-18T01:21:38;11.70;99.90
30250;DHT22;17064;47.974;13.826;2023-02-18T01:26:38;11.70;99.90
30250;DHT22;17064;47.974;13.826;2023-02-18T01:31:39;11.70;99.90
30250;DHT22;17064;47.974;13.826;2023-02-18T01:36:40;11.60;99.90
30250;DHT22;17064;47.974;13.826;2023-02-18T01:41:41;11.60;99.90
30250;DHT22;17064;47.974;13.826;2023-02-18T01:46:41;11.60;99.90
30250;DHT22;17064;47.974;13.826;2023-02-18T01:51:55;11.60;99.90
30250;DHT22;17064;47.974;13.826;2023-02-18T01:57:00;11.50;99.90
30250;DHT22;17064;47.974;13.826;2023-02-18T02:02:02;11.50;99.90
30250;DHT22;17064;47.974;13.826;2023-02-18T02:07:04;11.40;99.90
30250;DHT22;17064;47.974;13.826;2023-02-18T02:23:39;11.20;99.90
30250;DHT22;17064;47.974;13.826;2023-02-18T02:44:44;11.30;99.90
30250;DHT22;17064;47.974;13.826;2023-02-18T02:50:08;11.30;99.90
30250;DHT22;17064;47.974;13.826;2023-02-18T02:55:11;11.30;99.90
30250;DHT22;17064;47.974;13.826;2023-02-18T03:00:14;11.30;99.90
30250;DHT22;17064;47.974;13.826;2023-02-18T03:10:38;11.20;99.90
30250;DHT22;17064;47.974;13.826;2023-02-18T03:21:22;11.10;99.90
30250;DHT22;17064;47.974;13.826;2023-02-18T03:26:25;11.10;99.90
30250;DHT22;17064;47.974;13.826;2023-02-18T03:31:28;11.00;99.90
30250;DHT22;17064;47.974;13.826;2023-02-18T03:36:30;11.10;99.90
30250;DHT22;17064;47.974;13.826;2023-02-18T03:41:32;11.10;99.90
30250;DHT22;17064;47.974;13.826;2023-02-18T03:46:35;11.10;99.90
30250;DHT22;17064;47.974;13.826;2023-02-18T03:51:36;11.10;99.90
30250;DHT22;17064;47.974;13.826;2023-02-18T03:56:37;11.10;99.90
30250;DHT22;17064;47.974;13.826;2023-02-18T04:01:38;11.10;99.90
30250;DHT22;17064;47.974;13.826;2023-02-18T04:06:38;11.10;99.90
30250;DHT22;17064;47.974;13.826;2023-02-18T04:11:39;11.10;99.90
30250;DHT22;17064;47.974;13.826;2023-02-18T04:16:40;11.10;99.90
30250;DHT22;17064;47.974;13.826;2023-02-18T04:21:41;11.20;99.90
30250;DHT22;17064;47.974;13.826;2023-02-18T04:26:42;11.20;99.90
30250;DHT22;17064;47.974;13.826;2023-02-18T04:31:43;11.20;99.90
30250;DHT22;17064;47.974;13.826;2023-02-18T04:36:43;11.30;99.90
30250;DHT22;17064;47.974;13.826;2023-02-18T04:41:44;11.20;99.90
30250;DHT22;17064;47.974;13.826;2023-02-18T04:46:45;11.20;99.90
30250;DHT22;17064;47.974;13.826;2023-02-18T04:51:45;11.30;99.90
30250;DHT22;17064;47.974;13.826;2023-02-18T04:56:46;11.30;99.90
30250;DHT22;17064;47.974;13.826;2023-02-18T05:01:47;11.40;99.90
30250;DHT22;17064;47.974;13.826;2023-02-18T05:06:47;11.30;99.90
30250;DHT22;17064;47.974;13.826;2023-02-18T05:11:48;11.30;99.90
30250;DHT22;17064;47.974;13.826;2023-02-18T05:16:49;11.30;99.90
30250;DHT22;17064;47.974;13.826;2023-02-18T05:21:50;11.30;99.90
30250;DHT22;17064;47.974;13.826;2023-02-18T05:26:51;11.30;99.90
30250;DHT22;17064;47.974;13.826;2023-02-18T05:31:51;11.40;99.90
30250;DHT22;17064;47.974;13.826;2023-02-18T05:36:52;11.40;99.90
30250;DHT22;17064;47.974;13.826;2023-02-18T05:41:53;11.30;99.90
30250;DHT22;17064;47.974;13.826;2023-02-18T05:46:53;11.30;99.90
30250;DHT22;17064;47.974;13.826;2023-02-18T05:51:54;11.30;99.90
30250;DHT22;17064;47.974;13.826;2023-02-18T05:56:55;11.30;99.90
30250;DHT22;17064;47.974;13.826;2023-02-18T06:01:56;11.30;99.90
30250;DHT22;17064;47.974;13.826;2023-02-18T06:06:57;11.30;99.90
30250;DHT22;17064;47.974;13.826;2023-02-18T06:11:58;11.20;99.90
30250;DHT22;17064;47.974;13.826;2023-02-18T06:16:59;11.20;99.90
30250;DHT22;17064;47.974;13.826;2023-02-18T06:21:59;11.10;99.90
30250;DHT22;17064;47.974;13.826;2023-02-18T06:27:01;11.20;99.90
30250;DHT22;17064;47.974;13.826;2023-02-18T06:32:01;11.20;99.90
30250;DHT22;17064;47.974;13.826;2023-02-18T06:37:02;11.20;99.90
30250;DHT22;17064;47.974;13.826;2023-02-18T06:42:03;11.20;99.90
30250;DHT22;17064;47.974;13.826;2023-02-18T06:47:04;11.10;99.90
30250;DHT22;17064;47.974;13.826;2023-02-18T06:52:05;11.20;99.90
30250;DHT22;17064;47.974;13.826;2023-02-18T06:57:05;11.20;99.90
30250;DHT22;17064;47.974;13.826;2023-02-18T07:02:08;11.20;99.90
30250;DHT22;17064;47.974;13.826;2023-02-18T07:07:09;11.30;99.90
30250;DHT22;17064;47.974;13.826;2023-02-18T07:12:10;11.30;99.90
30250;DHT22;17064;47.974;13.826;2023-02-18T07:17:11;11.30;99.90
30250;DHT22;17064;47.974;13.826;2023-02-18T07:22:11;11.40;99.90
30250;DHT22;17064;47.974;13.826;2023-02-18T07:27:12;11.40;99.90
30250;DHT22;17064;47.974;13.826;2023-02-18T07:32:14;11.40;99.90
30250;DHT22;17064;47.974;13.826;2023-02-18T07:37:15;11.50;99.90
30250;DHT22;17064;47.974;13.826;2023-02-18T07:42:16;11.50;99.90
30250;DHT22;17064;47.974;13.826;2023-02-18T07:47:17;11.50;99.90
30250;DHT22;17064;47.974;13.826;2023-02-18T07:52:19;11.50;99.90
30250;DHT22;17064;47.974;13.826;2023-02-18T07:57:19;11.50;99.90
30250;DHT22;17064;47.974;13.826;2023-02-18T08:02:22;11.60;99.90
30250;DHT22;17064;47.974;13.826;2023-02-18T08:07:23;11.60;99.90
30250;DHT22;17064;47.974;13.826;2023-02-18T08:12:23;11.70;99.90
30250;DHT22;17064;47.974;13.826;2023-02-18T08:17:24;11.70;99.90
30250;DHT22;17064;47.974;13.826;2023-02-18T08:22:25;11.80;99.90
30250;DHT22;17064;47.974;13.826;2023-02-18T08:27:25;11.80;99.90
30250;DHT22;17064;47.974;13.826;2023-02-18T08:32:27;11.90;99.90
30250;DHT22;17064;47.974;13.826;2023-02-18T08:37:28;11.90;99.90
30250;DHT22;17064;47.974;13.826;2023-02-18T08:42:29;11.90;99.90
30250;DHT22;17064;47.974;13.826;2023-02-18T08:47:30;11.90;99.90
30250;DHT22;17064;47.974;13.826;2023-02-18T08:52:31;12.00;99.90
30250;DHT22;17064;47.974;13.826;2023-02-18T08:57:31;12.10;99.90
30250;DHT22;17064;47.974;13.826;2023-02-18T09:02:32;12.10;99.90
30250;DHT22;17064;47.974;13.826;2023-02-18T09:07:33;12.20;99.90
30250;DHT22;17064;47.974;13.826;2023-02-18T09:12:34;12.20;99.90
30250;DHT22;17064;47.974;13.826;2023-02-18T09:17:35;12.10;99.90
30250;DHT22;17064;47.974;13.826;2023-02-18T09:22:36;12.10;99.90
30250;DHT22;17064;47.974;13.826;2023-02-18T09:27:37;12.50;99.90
30250;DHT22;17064;47.974;13.826;2023-02-18T09:32:37;12.80;99.90
30250;DHT22;17064;47.974;13.826;2023-02-18T09:37:38;13.10;99.90
30250;DHT22;17064;47.974;13.826;2023-02-18T09:42:40;13.20;99.90
30250;DHT22;17064;47.974;13.826;2023-02-18T09:47:42;13.30;99.90
30250;DHT22;17064;47.974;13.826;2023-02-18T09:52:44;13.40;99.90
30250;DHT22;17064;47.974;13.826;2023-02-18T09:57:49;13.10;99.90
30250;DHT22;17064;47.974;13.826;2023-02-18T10:02:56;12.90;99.90
30250;DHT22;17064;47.974;13.826;2023-02-18T10:08:04;12.90;99.90
30250;DHT22;17064;47.974;13.826;2023-02-18T10:13:20;12.80;99.90
30250;DHT22;17064;47.974;13.826;2023-02-18T10:18:34;12.80;99.90
30250;DHT22;17064;47.974;13.826;2023-02-18T10:23:38;12.90;99.90
30250;DHT22;17064;47.974;13.826;2023-02-18T10:28:39;12.90;99.90
30250;DHT22;17064;47.974;13.826;2023-02-18T10:50:10;13.50;99.90
30250;DHT22;17064;47.974;13.826;2023-02-18T10:55:14;13.60;99.90
30250;DHT22;17064;47.974;13.826;2023-02-18T11:00:22;13.70;99.90
30250;DHT22;17064;47.974;13.826;2023-02-18T11:05:27;13.90;99.90
30250;DHT22;17064;47.974;13.826;2023-02-18T11:10:34;14.00;99.90
30250;DHT22;17064;47.974;13.826;2023-02-18T11:15:35;14.10;99.90
30250;DHT22;17064;47.974;13.826;2023-02-18T11:20:37;14.10;99.90
30250;DHT22;17064;47.974;13.826;2023-02-18T11:25:39;14.20;99.90
30250;DHT22;17064;47.974;13.826;2023-02-18T11:30:44;14.40;99.90
30250;DHT22;17064;47.974;13.826;2023-02-18T11:35:52;14.60;99.90
30250;DHT22;17064;47.974;13.826;2023-02-18T11:41:12;14.70;99.90
30250;DHT22;17064;47.974;13.826;2023-02-18T11:46:20;14.80;99.90
30250;DHT22;17064;47.974;13.826;2023-02-18T11:51:34;15.10;99.70
30250;DHT22;17064;47.974;13.826;2023-02-18T11:56:37;15.00;98.40
30250;DHT22;17064;47.974;13.826;2023-02-18T12:01:49;15.20;98.30
30250;DHT22;17064;47.974;13.826;2023-02-18T12:12:12;15.30;97.60
30250;DHT22;17064;47.974;13.826;2023-02-18T12:38:21;16.00;94.00
30250;DHT22;17064;47.974;13.826;2023-02-18T12:54:10;16.40;92.80
30250;DHT22;17064;47.974;13.826;2023-02-18T12:59:45;16.70;91.40
30250;DHT22;17064;47.974;13.826;2023-02-18T13:10:26;17.00;88.50
30250;DHT22;17064;47.974;13.826;2023-02-18T13:15:38;17.20;85.90
30250;DHT22;17064;47.974;13.826;2023-02-18T13:20:44;17.70;84.80
30250;DHT22;17064;47.974;13.826;2023-02-18T13:25:46;17.80;82.90
30250;DHT22;17064;47.974;13.826;2023-02-18T13:52:44;19.60;68.10
30250;DHT22;17064;47.974;13.826;2023-02-18T13:57:47;19.70;66.10
30250;DHT22;17064;47.974;13.826;2023-02-18T14:02:57;19.20;64.90
30250;DHT22;17064;47.974;13.826;2023-02-18T14:18:36;19.50;64.20
30250;DHT22;17064;47.974;13.826;2023-02-18T14:23:58;19.60;62.90
30250;DHT22;17064;47.974;13.826;2023-02-18T14:50:15;17.20;70.90
30250;DHT22;17064;47.974;13.826;2023-02-18T14:55:31;16.80;73.90
30250;DHT22;17064;47.974;13.826;2023-02-18T15:00:34;16.40;76.30
30250;DHT22;17064;47.974;13.826;2023-02-18T15:05:39;15.90;76.30
30250;DHT22;17064;47.974;13.826;2023-02-18T15:10:47;15.50;77.20
30250;DHT22;17064;47.974;13.826;2023-02-18T15:15:56;15.20;78.30
30250;DHT22;17064;47.974;13.826;2023-02-18T15:21:02;15.00;78.60
30250;DHT22;17064;47.974;13.826;2023-02-18T15:26:05;14.90;79.00
30250;DHT22;17064;47.974;13.826;2023-02-18T15:31:10;14.80;79.00
30250;DHT22;17064;47.974;13.826;2023-02-18T15:36:14;14.70;79.70
30250;DHT22;17064;47.974;13.826;2023-02-18T15:41:15;14.60;80.80
30250;DHT22;17064;47.974;13.826;2023-02-18T15:46:17;14.40;81.70
30250;DHT22;17064;47.974;13.826;2023-02-18T15:51:24;14.30;82.70
30250;DHT22;17064;47.974;13.826;2023-02-18T15:56:37;14.10;82.60
30250;DHT22;17064;47.974;13.826;2023-02-18T16:01:39;13.90;83.40
30250;DHT22;17064;47.974;13.826;2023-02-18T16:06:48;13.80;84.10
30250;DHT22;17064;47.974;13.826;2023-02-18T16:12:01;13.60;83.40
30250;DHT22;17064;47.974;13.826;2023-02-18T16:17:16;13.30;82.60
30250;DHT22;17064;47.974;13.826;2023-02-18T16:22:24;13.10;82.80
30250;DHT22;17064;47.974;13.826;2023-02-18T16:27:36;12.90;83.70
30250;DHT22;17064;47.974;13.826;2023-02-18T16:32:38;12.80;84.90
30250;DHT22;17064;47.974;13.826;2023-02-18T16:37:40;12.60;85.60
30250;DHT22;17064;47.974;13.826;2023-02-18T16:42:44;12.50;85.90
30250;DHT22;17064;47.974;13.826;2023-02-18T16:47:47;12.40;87.40
30250;DHT22;17064;47.974;13.826;2023-02-18T16:52:48;12.30;88.70
30250;DHT22;17064;47.974;13.826;2023-02-18T16:57:49;12.20;89.60
30250;DHT22;17064;47.974;13.826;2023-02-18T17:02:53;12.10;90.20
30250;DHT22;17064;47.974;13.826;2023-02-18T17:08:05;12.00;90.60
30250;DHT22;17064;47.974;13.826;2023-02-18T17:13:14;11.90;91.00
30250;DHT22;17064;47.974;13.826;2023-02-18T17:18:15;11.90;91.50
30250;DHT22;17064;47.974;13.826;2023-02-18T17:23:19;11.90;91.50
30250;DHT22;17064;47.974;13.826;2023-02-18T17:28:25;11.90;91.30
30250;DHT22;17064;47.974;13.826;2023-02-18T17:33:26;12.00;91.40
30250;DHT22;17064;47.974;13.826;2023-02-18T17:38:27;11.90;91.70
30250;DHT22;17064;47.974;13.826;2023-02-18T17:43:28;11.90;91.90
30250;DHT22;17064;47.974;13.826;2023-02-18T17:48:30;11.90;92.00
30250;DHT22;17064;47.974;13.826;2023-02-18T17:53:31;11.90;91.70
30250;DHT22;17064;47.974;13.826;2023-02-18T17:58:32;11.90;92.00
30250;DHT22;17064;47.974;13.826;2023-02-18T18:03:33;11.90;92.20
30250;DHT22;17064;47.974;13.826;2023-02-18T18:08:34;11.80;92.30
30250;DHT22;17064;47.974;13.826;2023-02-18T18:13:35;11.80;92.30
30250;DHT22;17064;47.974;13.826;2023-02-18T18:18:36;11.80;92.30
30250;DHT22;17064;47.974;13.826;2023-02-18T18:23:37;11.80;92.30
30250;DHT22;17064;47.974;13.826;2023-02-18T18:28:38;11.70;92.30
30250;DHT22;17064;47.974;13.826;2023-02-18T18:33:39;11.80;92.10
30250;DHT22;17064;47.974;13.826;2023-02-18T18:38:40;11.80;92.40
30250;DHT22;17064;47.974;13.826;2023-02-18T18:43:43;11.70;92.30
30250;DHT22;17064;47.974;13.826;2023-02-18T18:48:44;11.80;92.30
30250;DHT22;17064;47.974;13.826;2023-02-18T18:53:45;11.80;92.20
30250;DHT22;17064;47.974;13.826;2023-02-18T18:58:48;11.80;92.20
30250;DHT22;17064;47.974;13.826;2023-02-18T19:03:49;11.80;92.40
30250;DHT22;17064;47.974;13.826;2023-02-18T19:08:50;11.80;92.20
30250;DHT22;17064;47.974;13.826;2023-02-18T19:13:51;11.70;92.10
30250;DHT22;17064;47.974;13.826;2023-02-18T19:18:53;11.80;92.30
30250;DHT22;17064;47.974;13.826;2023-02-18T19:23:55;11.80;92.10
30250;DHT22;17064;47.974;13.826;2023-02-18T19:28:56;11.80;92.00
30250;DHT22;17064;47.974;13.826;2023-02-18T19:33:59;11.80;92.10
30250;DHT22;17064;47.974;13.826;2023-02-18T19:39:03;11.80;92.10
30250;DHT22;17064;47.974;13.826;2023-02-18T19:44:12;11.70;92.00
30250;DHT22;17064;47.974;13.826;2023-02-18T19:49:13;11.70;92.10
30250;DHT22;17064;47.974;13.826;2023-02-18T19:54:14;11.70;92.60
30250;DHT22;17064;47.974;13.826;2023-02-18T19:59:15;11.60;92.20
30250;DHT22;17064;47.974;13.826;2023-02-18T20:04:18;11.70;92.30
30250;DHT22;17064;47.974;13.826;2023-02-18T20:09:19;11.60;92.30
30250;DHT22;17064;47.974;13.826;2023-02-18T20:14:20;11.60;92.40
30250;DHT22;17064;47.974;13.826;2023-02-18T20:19:24;11.60;92.40
30250;DHT22;17064;47.974;13.826;2023-02-18T20:24:33;11.60;92.30
30250;DHT22;17064;47.974;13.826;2023-02-18T20:29:34;11.60;92.40
30250;DHT22;17064;47.974;13.826;2023-02-18T20:34:36;11.60;92.30
30250;DHT22;17064;47.974;13.826;2023-02-18T20:39:37;11.60;92.30
30250;DHT22;17064;47.974;13.826;2023-02-18T20:44:38;11.50;92.50
30250;DHT22;17064;47.974;13.826;2023-02-18T20:49:40;11.50;92.50
30250;DHT22;17064;47.974;13.826;2023-02-18T20:54:41;11.50;92.60
30250;DHT22;17064;47.974;13.826;2023-02-18T20:59:42;11.60;92.60
30250;DHT22;17064;47.974;13.826;2023-02-18T21:04:43;11.70;93.00
30250;DHT22;17064;47.974;13.826;2023-02-18T21:09:44;11.70;93.40
30250;DHT22;17064;47.974;13.826;2023-02-18T21:14:46;11.70;94.00
30250;DHT22;17064;47.974;13.826;2023-02-18T21:19:47;11.60;93.80
30250;DHT22;17064;47.974;13.826;2023-02-18T21:24:49;11.60;93.90
30250;DHT22;17064;47.974;13.826;2023-02-18T21:29:52;11.50;93.90
30250;DHT22;17064;47.974;13.826;2023-02-18T21:34:53;11.50;93.90
30250;DHT22;17064;47.974;13.826;2023-02-18T21:39:54;11.60;93.50
30250;DHT22;17064;47.974;13.826;2023-02-18T21:44:55;11.70;93.70
30250;DHT22;17064;47.974;13.826;2023-02-18T21:49:56;11.60;93.90
30250;DHT22;17064;47.974;13.826;2023-02-18T21:54:57;11.50;94.20
30250;DHT22;17064;47.974;13.826;2023-02-18T21:59:58;11.50;94.40
30250;DHT22;17064;47.974;13.826;2023-02-18T22:04:59;11.50;94.40
30250;DHT22;17064;47.974;13.826;2023-02-18T22:10:07;11.50;94.50
30250;DHT22;17064;47.974;13.826;2023-02-18T22:15:08;11.50;94.70
30250;DHT22;17064;47.974;13.826;2023-02-18T22:20:09;11.40;95.30
30250;DHT22;17064;47.974;13.826;2023-02-18T22:25:10;11.40;95.70
30250;DHT22;17064;47.974;13.826;2023-02-18T22:30:11;11.30;97.70
30250;DHT22;17064;47.974;13.826;2023-02-18T22:35:11;11.20;99.40
30250;DHT22;17064;47.974;13.826;2023-02-18T22:40:12;11.00;99.90
30250;DHT22;17064;47.974;13.826;2023-02-18T22:45:13;10.80;99.90
30250;DHT22;17064;47.974;13.826;2023-02-18T22:50:15;10.60;99.90
30250;DHT22;17064;47.974;13.826;2023-02-18T22:55:16;10.40;99.90
30250;DHT22;17064;47.974;13.826;2023-02-18T23:00:17;10.30;99.90
30250;DHT22;17064;47.974;13.826;2023-02-18T23:05:18;10.20;99.90
30250;DHT22;17064;47.974;13.826;2023-02-18T23:10:19;10.00;99.90
30250;DHT22;17064;47.974;13.826;2023-02-18T23:15:20;9.90;99.90
30250;DHT22;17064;47.974;13.826;2023-02-18T23:20:21;9.80;99.90
30250;DHT22;17064;47.974;13.826;2023-02-18T23:25:41;9.80;99.90
30250;DHT22;17064;47.974;13.826;2023-02-18T23:30:42;9.70;99.90
30250;DHT22;17064;47.974;13.826;2023-02-18T23:35:43;9.60;99.90
30250;DHT22;17064;47.974;13.826;2023-02-18T23:40:43;9.50;99.90
30250;DHT22;17064;47.974;13.826;2023-02-18T23:45:44;9.50;99.90
30250;DHT22;17064;47.974;13.826;2023-02-18T23:50:45;9.40;99.90
30250;DHT22;17064;47.974;13.826;2023-02-18T23:55:45;9.40;99.90
